sensor_id;sensor_type;location;lat;lon;timestamp;P1;durP1;ratioP1;P2;durP2;ratioP2
59336;SDS011;45115;52.002;4.686;2023-07-02T00:02:15;16.10;;;5.70;;
59336;SDS011;45115;52.002;4.686;2023-07-02T00:04:42;10.20;;;5.05;;
59336;SDS011;45115;52.002;4.686;2023-07-02T00:07:09;13.45;;;4.97;;
59336;SDS011;45115;52.002;4.686;2023-07-02T00:09:36;16.10;;;5.60;;
59336;SDS011;45115;52.002;4.686;2023-07-02T00:12:05;15.23;;;5.80;;
59336;SDS011;45115;52.002;4.686;2023-07-02T00:14:32;16.10;;;5.97;;
59336;SDS011;45115;52.002;4.686;2023-07-02T00:16:59;14.82;;;6.13;;
59336;SDS011;45115;52.002;4.686;2023-07-02T00:19:26;16.30;;;5.65;;
59336;SDS011;45115;52.002;4.686;2023-07-02T00:21:53;12.82;;;5.25;;
59336;SDS011;45115;52.002;4.686;2023-07-02T00:24:21;17.30;;;6.07;;
59336;SDS011;45115;52.002;4.686;2023-07-02T00:26:48;12.45;;;5.95;;
59336;SDS011;45115;52.002;4.686;2023-07-02T00:29:16;21.23;;;6.38;;
59336;SDS011;45115;52.002;4.686;2023-07-02T00:31:43;12.32;;;5.18;;
59336;SDS011;45115;52.002;4.686;2023-07-02T00:34:10;14.32;;;5.53;;
59336;SDS011;45115;52.002;4.686;2023-07-02T00:36:37;12.15;;;5.75;;
59336;SDS011;45115;52.002;4.686;2023-07-02T00:39:04;16.52;;;6.13;;
59336;SDS011;45115;52.002;4.686;2023-07-02T00:41:30;13.88;;;5.32;;
59336;SDS011;45115;52.002;4.686;2023-07-02T00:43:57;14.48;;;5.97;;
59336;SDS011;45115;52.002;4.686;2023-07-02T00:46:25;14.90;;;5.20;;
59336;SDS011;45115;52.002;4.686;2023-07-02T00:48:53;15.57;;;5.80;;
59336;SDS011;45115;52.002;4.686;2023-07-02T00:51:21;10.77;;;4.95;;
59336;SDS011;45115;52.002;4.686;2023-07-02T00:53:50;14.05;;;5.65;;
59336;SDS011;45115;52.002;4.686;2023-07-02T00:56:17;13.38;;;4.90;;
59336;SDS011;45115;52.002;4.686;2023-07-02T00:58:46;11.10;;;5.03;;
59336;SDS011;45115;52.002;4.686;2023-07-02T01:01:15;10.40;;;5.28;;
59336;SDS011;45115;52.002;4.686;2023-07-02T01:03:51;11.98;;;5.47;;
59336;SDS011;45115;52.002;4.686;2023-07-02T01:06:22;15.70;;;5.47;;
59336;SDS011;45115;52.002;4.686;2023-07-02T01:08:54;15.95;;;6.85;;
59336;SDS011;45115;52.002;4.686;2023-07-02T01:11:25;11.32;;;5.32;;
59336;SDS011;45115;52.002;4.686;2023-07-02T01:13:55;19.55;;;5.97;;
59336;SDS011;45115;52.002;4.686;2023-07-02T01:16:26;17.50;;;6.57;;
59336;SDS011;45115;52.002;4.686;2023-07-02T01:18:59;15.38;;;6.10;;
59336;SDS011;45115;52.002;4.686;2023-07-02T01:21:32;15.25;;;6.15;;
59336;SDS011;45115;52.002;4.686;2023-07-02T01:24:00;18.95;;;6.20;;
59336;SDS011;45115;52.002;4.686;2023-07-02T01:26:28;19.08;;;6.32;;
59336;SDS011;45115;52.002;4.686;2023-07-02T01:28:59;17.17;;;6.28;;
59336;SDS011;45115;52.002;4.686;2023-07-02T01:31:27;19.42;;;6.78;;
59336;SDS011;45115;52.002;4.686;2023-07-02T01:33:53;15.27;;;6.32;;
59336;SDS011;45115;52.002;4.686;2023-07-02T01:36:20;17.17;;;6.85;;
59336;SDS011;45115;52.002;4.686;2023-07-02T01:38:48;15.88;;;5.80;;
59336;SDS011;45115;52.002;4.686;2023-07-02T01:41:15;18.58;;;6.43;;
59336;SDS011;45115;52.002;4.686;2023-07-02T01:43:42;15.23;;;5.82;;
59336;SDS011;45115;52.002;4.686;2023-07-02T01:46:10;15.57;;;6.55;;
59336;SDS011;45115;52.002;4.686;2023-07-02T01:48:36;16.60;;;6.95;;
59336;SDS011;45115;52.002;4.686;2023-07-02T01:51:03;15.32;;;5.95;;
59336;SDS011;45115;52.002;4.686;2023-07-02T01:53:30;18.85;;;6.30;;
59336;SDS011;45115;52.002;4.686;2023-07-02T01:55:58;16.52;;;6.53;;
59336;SDS011;45115;52.002;4.686;2023-07-02T01:58:25;16.75;;;6.07;;
59336;SDS011;45115;52.002;4.686;2023-07-02T02:00:52;17.40;;;6.55;;
59336;SDS011;45115;52.002;4.686;2023-07-02T02:03:20;13.50;;;6.22;;
59336;SDS011;45115;52.002;4.686;2023-07-02T02:05:46;14.73;;;6.43;;
59336;SDS011;45115;52.002;4.686;2023-07-02T02:08:13;16.15;;;7.07;;
59336;SDS011;45115;52.002;4.686;2023-07-02T02:10:40;15.23;;;6.53;;
59336;SDS011;45115;52.002;4.686;2023-07-02T02:13:08;16.27;;;6.35;;
59336;SDS011;45115;52.002;4.686;2023-07-02T02:15:36;17.23;;;6.45;;
59336;SDS011;45115;52.002;4.686;2023-07-02T02:18:04;16.48;;;6.35;;
59336;SDS011;45115;52.002;4.686;2023-07-02T02:20:31;17.23;;;6.65;;
59336;SDS011;45115;52.002;4.686;2023-07-02T02:22:58;18.20;;;6.97;;
59336;SDS011;45115;52.002;4.686;2023-07-02T02:25:25;17.90;;;6.50;;
59336;SDS011;45115;52.002;4.686;2023-07-02T02:27:52;17.48;;;6.70;;
59336;SDS011;45115;52.002;4.686;2023-07-02T02:30:20;18.92;;;6.40;;
59336;SDS011;45115;52.002;4.686;2023-07-02T02:32:48;17.17;;;7.00;;
59336;SDS011;45115;52.002;4.686;2023-07-02T02:35:15;15.13;;;6.40;;
59336;SDS011;45115;52.002;4.686;2023-07-02T02:37:42;18.92;;;6.32;;
59336;SDS011;45115;52.002;4.686;2023-07-02T02:40:10;21.33;;;6.55;;
59336;SDS011;45115;52.002;4.686;2023-07-02T02:42:39;15.75;;;5.32;;
59336;SDS011;45115;52.002;4.686;2023-07-02T02:45:06;17.23;;;6.60;;
59336;SDS011;45115;52.002;4.686;2023-07-02T02:47:35;13.60;;;6.05;;
59336;SDS011;45115;52.002;4.686;2023-07-02T02:50:02;20.45;;;7.55;;
59336;SDS011;45115;52.002;4.686;2023-07-02T02:52:30;17.77;;;6.25;;
59336;SDS011;45115;52.002;4.686;2023-07-02T02:54:57;22.17;;;7.55;;
59336;SDS011;45115;52.002;4.686;2023-07-02T02:57:25;18.60;;;7.47;;
59336;SDS011;45115;52.002;4.686;2023-07-02T02:59:52;21.08;;;7.55;;
59336;SDS011;45115;52.002;4.686;2023-07-02T03:02:18;23.02;;;7.90;;
59336;SDS011;45115;52.002;4.686;2023-07-02T03:04:47;17.13;;;6.75;;
59336;SDS011;45115;52.002;4.686;2023-07-02T03:07:14;19.15;;;7.10;;
59336;SDS011;45115;52.002;4.686;2023-07-02T03:09:41;18.35;;;7.88;;
59336;SDS011;45115;52.002;4.686;2023-07-02T03:12:08;20.83;;;7.30;;
59336;SDS011;45115;52.002;4.686;2023-07-02T03:14:36;17.40;;;6.50;;
59336;SDS011;45115;52.002;4.686;2023-07-02T03:17:02;20.48;;;8.30;;
59336;SDS011;45115;52.002;4.686;2023-07-02T03:19:30;19.98;;;6.90;;
59336;SDS011;45115;52.002;4.686;2023-07-02T03:21:58;18.55;;;7.03;;
59336;SDS011;45115;52.002;4.686;2023-07-02T03:24:25;16.23;;;6.82;;
59336;SDS011;45115;52.002;4.686;2023-07-02T03:26:52;22.02;;;7.28;;
59336;SDS011;45115;52.002;4.686;2023-07-02T03:29:18;19.83;;;8.07;;
59336;SDS011;45115;52.002;4.686;2023-07-02T03:31:45;19.77;;;7.05;;
59336;SDS011;45115;52.002;4.686;2023-07-02T03:34:12;21.38;;;6.82;;
59336;SDS011;45115;52.002;4.686;2023-07-02T03:36:39;19.80;;;6.95;;
59336;SDS011;45115;52.002;4.686;2023-07-02T03:39:07;18.05;;;7.20;;
59336;SDS011;45115;52.002;4.686;2023-07-02T03:41:34;21.52;;;6.93;;
59336;SDS011;45115;52.002;4.686;2023-07-02T03:44:01;17.08;;;6.57;;
59336;SDS011;45115;52.002;4.686;2023-07-02T03:46:27;18.48;;;6.45;;
59336;SDS011;45115;52.002;4.686;2023-07-02T03:48:55;20.27;;;6.57;;
59336;SDS011;45115;52.002;4.686;2023-07-02T03:51:22;20.58;;;7.05;;
59336;SDS011;45115;52.002;4.686;2023-07-02T03:53:49;17.40;;;6.57;;
59336;SDS011;45115;52.002;4.686;2023-07-02T03:56:17;15.85;;;7.32;;
59336;SDS011;45115;52.002;4.686;2023-07-02T03:58:44;14.65;;;6.45;;
59336;SDS011;45115;52.002;4.686;2023-07-02T04:01:10;22.05;;;6.45;;
59336;SDS011;45115;52.002;4.686;2023-07-02T04:03:37;18.35;;;6.53;;
59336;SDS011;45115;52.002;4.686;2023-07-02T04:06:04;16.83;;;6.60;;
59336;SDS011;45115;52.002;4.686;2023-07-02T04:08:34;16.60;;;6.00;;
59336;SDS011;45115;52.002;4.686;2023-07-02T04:11:01;21.90;;;6.90;;
59336;SDS011;45115;52.002;4.686;2023-07-02T04:13:30;19.88;;;8.05;;
59336;SDS011;45115;52.002;4.686;2023-07-02T04:15:56;19.33;;;6.68;;
59336;SDS011;45115;52.002;4.686;2023-07-02T04:18:23;13.63;;;5.55;;
59336;SDS011;45115;52.002;4.686;2023-07-02T04:20:50;17.80;;;6.78;;
59336;SDS011;45115;52.002;4.686;2023-07-02T04:23:16;16.70;;;6.20;;
59336;SDS011;45115;52.002;4.686;2023-07-02T04:25:43;16.70;;;7.10;;
59336;SDS011;45115;52.002;4.686;2023-07-02T04:28:10;14.95;;;5.47;;
59336;SDS011;45115;52.002;4.686;2023-07-02T04:30:38;16.50;;;5.88;;
59336;SDS011;45115;52.002;4.686;2023-07-02T04:33:07;12.55;;;5.43;;
59336;SDS011;45115;52.002;4.686;2023-07-02T04:35:34;19.00;;;6.03;;
59336;SDS011;45115;52.002;4.686;2023-07-02T04:38:02;16.83;;;6.22;;
59336;SDS011;45115;52.002;4.686;2023-07-02T04:40:29;13.90;;;5.55;;
59336;SDS011;45115;52.002;4.686;2023-07-02T04:42:55;17.02;;;5.97;;
59336;SDS011;45115;52.002;4.686;2023-07-02T04:45:24;16.70;;;6.18;;
59336;SDS011;45115;52.002;4.686;2023-07-02T04:47:55;18.40;;;5.72;;
59336;SDS011;45115;52.002;4.686;2023-07-02T04:50:22;17.90;;;5.53;;
59336;SDS011;45115;52.002;4.686;2023-07-02T04:52:49;14.77;;;5.13;;
59336;SDS011;45115;52.002;4.686;2023-07-02T04:55:16;13.48;;;5.28;;
59336;SDS011;45115;52.002;4.686;2023-07-02T04:57:43;14.55;;;5.78;;
59336;SDS011;45115;52.002;4.686;2023-07-02T05:00:10;18.38;;;6.00;;
59336;SDS011;45115;52.002;4.686;2023-07-02T05:02:38;17.25;;;5.85;;
59336;SDS011;45115;52.002;4.686;2023-07-02T05:05:07;16.35;;;5.82;;
59336;SDS011;45115;52.002;4.686;2023-07-02T05:07:34;12.65;;;5.78;;
59336;SDS011;45115;52.002;4.686;2023-07-02T05:10:01;15.55;;;6.13;;
59336;SDS011;45115;52.002;4.686;2023-07-02T05:12:31;12.65;;;5.75;;
59336;SDS011;45115;52.002;4.686;2023-07-02T05:14:58;13.48;;;5.68;;
59336;SDS011;45115;52.002;4.686;2023-07-02T05:17:25;16.80;;;5.68;;
59336;SDS011;45115;52.002;4.686;2023-07-02T05:19:54;14.85;;;5.95;;
59336;SDS011;45115;52.002;4.686;2023-07-02T05:22:22;14.10;;;5.30;;
59336;SDS011;45115;52.002;4.686;2023-07-02T05:24:49;13.10;;;5.10;;
59336;SDS011;45115;52.002;4.686;2023-07-02T05:27:16;14.68;;;5.63;;
59336;SDS011;45115;52.002;4.686;2023-07-02T05:29:43;13.38;;;5.78;;
59336;SDS011;45115;52.002;4.686;2023-07-02T05:32:10;15.10;;;5.38;;
59336;SDS011;45115;52.002;4.686;2023-07-02T05:34:37;13.43;;;5.18;;
59336;SDS011;45115;52.002;4.686;2023-07-02T05:37:04;12.48;;;5.57;;
59336;SDS011;45115;52.002;4.686;2023-07-02T05:39:34;14.43;;;5.72;;
59336;SDS011;45115;52.002;4.686;2023-07-02T05:42:01;15.00;;;5.38;;
59336;SDS011;45115;52.002;4.686;2023-07-02T05:44:28;17.98;;;5.78;;
59336;SDS011;45115;52.002;4.686;2023-07-02T05:46:55;17.48;;;5.90;;
59336;SDS011;45115;52.002;4.686;2023-07-02T05:49:22;11.35;;;5.18;;
59336;SDS011;45115;52.002;4.686;2023-07-02T05:51:48;11.85;;;5.55;;
59336;SDS011;45115;52.002;4.686;2023-07-02T05:54:15;11.55;;;5.38;;
59336;SDS011;45115;52.002;4.686;2023-07-02T05:56:43;13.90;;;5.63;;
59336;SDS011;45115;52.002;4.686;2023-07-02T05:59:10;14.93;;;5.43;;
59336;SDS011;45115;52.002;4.686;2023-07-02T06:01:40;15.73;;;5.55;;
59336;SDS011;45115;52.002;4.686;2023-07-02T06:04:06;12.55;;;5.22;;
59336;SDS011;45115;52.002;4.686;2023-07-02T06:06:33;16.15;;;5.53;;
59336;SDS011;45115;52.002;4.686;2023-07-02T06:09:00;12.85;;;5.18;;
59336;SDS011;45115;52.002;4.686;2023-07-02T06:11:28;13.93;;;4.90;;
59336;SDS011;45115;52.002;4.686;2023-07-02T06:13:57;16.80;;;5.50;;
59336;SDS011;45115;52.002;4.686;2023-07-02T06:16:24;16.80;;;5.55;;
59336;SDS011;45115;52.002;4.686;2023-07-02T06:18:51;16.02;;;5.55;;
59336;SDS011;45115;52.002;4.686;2023-07-02T06:21:18;13.30;;;5.20;;
59336;SDS011;45115;52.002;4.686;2023-07-02T06:23:46;14.32;;;5.35;;
59336;SDS011;45115;52.002;4.686;2023-07-02T06:26:13;15.27;;;5.75;;
59336;SDS011;45115;52.002;4.686;2023-07-02T06:28:40;12.75;;;4.80;;
59336;SDS011;45115;52.002;4.686;2023-07-02T06:31:08;14.32;;;5.65;;
59336;SDS011;45115;52.002;4.686;2023-07-02T06:36:05;12.00;;;5.22;;
59336;SDS011;45115;52.002;4.686;2023-07-02T06:38:32;11.88;;;5.07;;
59336;SDS011;45115;52.002;4.686;2023-07-02T06:40:59;13.48;;;5.13;;
59336;SDS011;45115;52.002;4.686;2023-07-02T06:43:25;13.80;;;4.80;;
59336;SDS011;45115;52.002;4.686;2023-07-02T06:45:52;14.50;;;4.97;;
59336;SDS011;45115;52.002;4.686;2023-07-02T06:48:20;14.05;;;5.07;;
59336;SDS011;45115;52.002;4.686;2023-07-02T06:50:47;13.20;;;4.57;;
59336;SDS011;45115;52.002;4.686;2023-07-02T06:53:14;14.65;;;5.10;;
59336;SDS011;45115;52.002;4.686;2023-07-02T06:55:41;8.88;;;4.22;;
59336;SDS011;45115;52.002;4.686;2023-07-02T06:58:08;11.38;;;5.13;;
59336;SDS011;45115;52.002;4.686;2023-07-02T07:00:35;12.15;;;4.93;;
59336;SDS011;45115;52.002;4.686;2023-07-02T07:03:02;11.80;;;4.65;;
59336;SDS011;45115;52.002;4.686;2023-07-02T07:05:30;11.25;;;4.50;;
59336;SDS011;45115;52.002;4.686;2023-07-02T07:07:58;15.02;;;5.32;;
59336;SDS011;45115;52.002;4.686;2023-07-02T07:10:26;13.43;;;5.72;;
59336;SDS011;45115;52.002;4.686;2023-07-02T07:12:53;13.50;;;5.05;;
59336;SDS011;45115;52.002;4.686;2023-07-02T07:15:19;13.77;;;5.32;;
59336;SDS011;45115;52.002;4.686;2023-07-02T07:17:46;13.88;;;4.95;;
59336;SDS011;45115;52.002;4.686;2023-07-02T07:20:14;15.63;;;5.28;;
59336;SDS011;45115;52.002;4.686;2023-07-02T07:22:42;16.35;;;5.53;;
59336;SDS011;45115;52.002;4.686;2023-07-02T07:25:09;16.05;;;5.22;;
59336;SDS011;45115;52.002;4.686;2023-07-02T07:27:36;12.82;;;5.05;;
59336;SDS011;45115;52.002;4.686;2023-07-02T07:30:03;15.20;;;5.05;;
59336;SDS011;45115;52.002;4.686;2023-07-02T07:32:31;16.90;;;5.35;;
59336;SDS011;45115;52.002;4.686;2023-07-02T07:34:58;12.45;;;4.90;;
59336;SDS011;45115;52.002;4.686;2023-07-02T07:37:28;14.50;;;5.10;;
59336;SDS011;45115;52.002;4.686;2023-07-02T07:39:56;14.02;;;4.93;;
59336;SDS011;45115;52.002;4.686;2023-07-02T07:42:23;12.90;;;5.07;;
59336;SDS011;45115;52.002;4.686;2023-07-02T07:44:50;12.30;;;4.93;;
59336;SDS011;45115;52.002;4.686;2023-07-02T07:47:16;11.15;;;4.63;;
59336;SDS011;45115;52.002;4.686;2023-07-02T07:49:43;13.48;;;4.60;;
59336;SDS011;45115;52.002;4.686;2023-07-02T07:52:13;11.88;;;4.88;;
59336;SDS011;45115;52.002;4.686;2023-07-02T07:54:39;9.75;;;4.43;;
59336;SDS011;45115;52.002;4.686;2023-07-02T07:57:07;13.02;;;4.82;;
59336;SDS011;45115;52.002;4.686;2023-07-02T07:59:34;11.25;;;4.35;;
59336;SDS011;45115;52.002;4.686;2023-07-02T08:02:01;9.80;;;4.65;;
59336;SDS011;45115;52.002;4.686;2023-07-02T08:04:28;10.82;;;4.95;;
59336;SDS011;45115;52.002;4.686;2023-07-02T08:06:54;13.43;;;4.97;;
59336;SDS011;45115;52.002;4.686;2023-07-02T08:09:23;11.43;;;4.65;;
59336;SDS011;45115;52.002;4.686;2023-07-02T08:11:50;10.75;;;4.22;;
59336;SDS011;45115;52.002;4.686;2023-07-02T08:14:18;9.32;;;4.28;;
59336;SDS011;45115;52.002;4.686;2023-07-02T08:16:45;10.52;;;4.03;;
59336;SDS011;45115;52.002;4.686;2023-07-02T08:19:11;13.73;;;4.90;;
59336;SDS011;45115;52.002;4.686;2023-07-02T08:21:38;12.05;;;4.65;;
59336;SDS011;45115;52.002;4.686;2023-07-02T08:24:05;13.13;;;4.30;;
59336;SDS011;45115;52.002;4.686;2023-07-02T08:26:32;10.50;;;4.72;;
59336;SDS011;45115;52.002;4.686;2023-07-02T08:28:59;10.07;;;3.90;;
59336;SDS011;45115;52.002;4.686;2023-07-02T08:31:27;11.85;;;4.53;;
59336;SDS011;45115;52.002;4.686;2023-07-02T08:33:54;9.18;;;4.18;;
59336;SDS011;45115;52.002;4.686;2023-07-02T08:36:21;10.18;;;3.72;;
59336;SDS011;45115;52.002;4.686;2023-07-02T08:38:47;10.18;;;4.10;;
59336;SDS011;45115;52.002;4.686;2023-07-02T08:41:14;12.10;;;4.03;;
59336;SDS011;45115;52.002;4.686;2023-07-02T08:43:41;8.80;;;4.00;;
59336;SDS011;45115;52.002;4.686;2023-07-02T08:46:08;13.18;;;4.18;;
59336;SDS011;45115;52.002;4.686;2023-07-02T08:48:37;9.27;;;3.65;;
59336;SDS011;45115;52.002;4.686;2023-07-02T08:51:04;8.48;;;3.70;;
59336;SDS011;45115;52.002;4.686;2023-07-02T08:53:31;11.63;;;3.75;;
59336;SDS011;45115;52.002;4.686;2023-07-02T08:55:59;10.27;;;4.30;;
59336;SDS011;45115;52.002;4.686;2023-07-02T08:58:26;8.27;;;4.13;;
59336;SDS011;45115;52.002;4.686;2023-07-02T09:01:09;14.50;;;5.03;;
59336;SDS011;45115;52.002;4.686;2023-07-02T09:03:38;11.05;;;4.50;;
59336;SDS011;45115;52.002;4.686;2023-07-02T09:06:07;10.75;;;4.32;;
59336;SDS011;45115;52.002;4.686;2023-07-02T09:08:34;9.73;;;4.07;;
59336;SDS011;45115;52.002;4.686;2023-07-02T09:11:05;11.55;;;5.35;;
59336;SDS011;45115;52.002;4.686;2023-07-02T09:13:43;9.15;;;4.15;;
59336;SDS011;45115;52.002;4.686;2023-07-02T09:16:24;9.02;;;3.90;;
59336;SDS011;45115;52.002;4.686;2023-07-02T09:18:57;9.95;;;3.83;;
59336;SDS011;45115;52.002;4.686;2023-07-02T09:21:28;9.02;;;3.50;;
59336;SDS011;45115;52.002;4.686;2023-07-02T09:24:11;6.95;;;3.35;;
59336;SDS011;45115;52.002;4.686;2023-07-02T09:26:41;8.75;;;3.50;;
59336;SDS011;45115;52.002;4.686;2023-07-02T09:29:09;8.63;;;3.60;;
59336;SDS011;45115;52.002;4.686;2023-07-02T09:31:42;7.47;;;3.70;;
59336;SDS011;45115;52.002;4.686;2023-07-02T09:34:11;7.20;;;3.42;;
59336;SDS011;45115;52.002;4.686;2023-07-02T09:36:38;8.85;;;3.67;;
59336;SDS011;45115;52.002;4.686;2023-07-02T09:39:06;10.57;;;3.45;;
59336;SDS011;45115;52.002;4.686;2023-07-02T09:41:34;6.05;;;2.95;;
59336;SDS011;45115;52.002;4.686;2023-07-02T09:44:01;9.25;;;3.05;;
59336;SDS011;45115;52.002;4.686;2023-07-02T09:46:28;8.23;;;3.33;;
59336;SDS011;45115;52.002;4.686;2023-07-02T09:48:58;6.85;;;3.30;;
59336;SDS011;45115;52.002;4.686;2023-07-02T09:51:27;8.13;;;3.63;;
59336;SDS011;45115;52.002;4.686;2023-07-02T09:53:54;7.80;;;3.53;;
59336;SDS011;45115;52.002;4.686;2023-07-02T09:56:21;9.68;;;3.40;;
59336;SDS011;45115;52.002;4.686;2023-07-02T09:58:48;11.13;;;4.13;;
59336;SDS011;45115;52.002;4.686;2023-07-02T10:01:15;10.45;;;4.07;;
59336;SDS011;45115;52.002;4.686;2023-07-02T10:03:41;8.30;;;3.33;;
59336;SDS011;45115;52.002;4.686;2023-07-02T10:06:08;8.02;;;3.70;;
59336;SDS011;45115;52.002;4.686;2023-07-02T10:08:37;7.90;;;3.58;;
59336;SDS011;45115;52.002;4.686;2023-07-02T10:11:07;9.60;;;4.00;;
59336;SDS011;45115;52.002;4.686;2023-07-02T10:13:35;9.57;;;3.30;;
59336;SDS011;45115;52.002;4.686;2023-07-02T10:16:02;9.10;;;4.00;;
59336;SDS011;45115;52.002;4.686;2023-07-02T10:18:29;7.63;;;3.58;;
59336;SDS011;45115;52.002;4.686;2023-07-02T10:20:56;8.65;;;3.78;;
59336;SDS011;45115;52.002;4.686;2023-07-02T10:23:34;10.18;;;3.92;;
59336;SDS011;45115;52.002;4.686;2023-07-02T10:26:13;9.40;;;3.67;;
59336;SDS011;45115;52.002;4.686;2023-07-02T10:28:41;9.00;;;3.95;;
59336;SDS011;45115;52.002;4.686;2023-07-02T10:31:17;7.82;;;3.50;;
59336;SDS011;45115;52.002;4.686;2023-07-02T10:33:45;17.17;;;3.95;;
59336;SDS011;45115;52.002;4.686;2023-07-02T10:36:17;8.60;;;3.40;;
59336;SDS011;45115;52.002;4.686;2023-07-02T10:38:45;10.40;;;3.92;;
59336;SDS011;45115;52.002;4.686;2023-07-02T10:41:22;10.43;;;3.55;;
59336;SDS011;45115;52.002;4.686;2023-07-02T10:43:50;8.00;;;3.67;;
59336;SDS011;45115;52.002;4.686;2023-07-02T10:46:20;7.13;;;3.28;;
59336;SDS011;45115;52.002;4.686;2023-07-02T10:48:50;9.02;;;3.90;;
59336;SDS011;45115;52.002;4.686;2023-07-02T10:51:18;8.07;;;3.78;;
59336;SDS011;45115;52.002;4.686;2023-07-02T10:53:46;6.82;;;3.53;;
59336;SDS011;45115;52.002;4.686;2023-07-02T10:56:25;7.82;;;3.80;;
59336;SDS011;45115;52.002;4.686;2023-07-02T10:58:53;8.40;;;3.53;;
59336;SDS011;45115;52.002;4.686;2023-07-02T11:01:23;9.60;;;3.90;;
59336;SDS011;45115;52.002;4.686;2023-07-02T11:03:58;10.23;;;3.85;;
59336;SDS011;45115;52.002;4.686;2023-07-02T11:06:26;8.52;;;3.80;;
59336;SDS011;45115;52.002;4.686;2023-07-02T11:08:53;7.68;;;3.53;;
59336;SDS011;45115;52.002;4.686;2023-07-02T11:11:21;7.65;;;4.00;;
59336;SDS011;45115;52.002;4.686;2023-07-02T11:13:50;10.88;;;4.40;;
59336;SDS011;45115;52.002;4.686;2023-07-02T11:16:19;10.50;;;4.10;;
59336;SDS011;45115;52.002;4.686;2023-07-02T11:18:48;10.00;;;4.13;;
59336;SDS011;45115;52.002;4.686;2023-07-02T11:21:15;7.97;;;3.55;;
59336;SDS011;45115;52.002;4.686;2023-07-02T11:23:41;8.70;;;4.03;;
59336;SDS011;45115;52.002;4.686;2023-07-02T11:26:08;13.32;;;4.50;;
59336;SDS011;45115;52.002;4.686;2023-07-02T11:28:35;11.27;;;4.22;;
59336;SDS011;45115;52.002;4.686;2023-07-02T11:31:03;8.32;;;4.60;;
59336;SDS011;45115;52.002;4.686;2023-07-02T11:33:33;10.27;;;4.38;;
59336;SDS011;45115;52.002;4.686;2023-07-02T11:36:01;10.68;;;4.30;;
59336;SDS011;45115;52.002;4.686;2023-07-02T11:38:28;7.85;;;3.97;;
59336;SDS011;45115;52.002;4.686;2023-07-02T11:40:55;9.18;;;4.03;;
59336;SDS011;45115;52.002;4.686;2023-07-02T11:43:22;9.13;;;4.00;;
59336;SDS011;45115;52.002;4.686;2023-07-02T11:45:49;10.65;;;4.85;;
59336;SDS011;45115;52.002;4.686;2023-07-02T11:48:17;11.23;;;4.20;;
59336;SDS011;45115;52.002;4.686;2023-07-02T11:50:44;11.93;;;4.65;;
59336;SDS011;45115;52.002;4.686;2023-07-02T11:53:11;13.57;;;4.53;;
59336;SDS011;45115;52.002;4.686;2023-07-02T11:55:38;9.80;;;4.03;;
59336;SDS011;45115;52.002;4.686;2023-07-02T11:58:05;9.73;;;4.00;;
59336;SDS011;45115;52.002;4.686;2023-07-02T12:00:32;10.20;;;4.32;;
59336;SDS011;45115;52.002;4.686;2023-07-02T12:02:59;8.00;;;4.10;;
59336;SDS011;45115;52.002;4.686;2023-07-02T12:05:28;10.20;;;3.97;;
59336;SDS011;45115;52.002;4.686;2023-07-02T12:07:55;9.55;;;4.30;;
59336;SDS011;45115;52.002;4.686;2023-07-02T12:10:21;8.73;;;4.10;;
59336;SDS011;45115;52.002;4.686;2023-07-02T12:12:48;9.85;;;4.47;;
59336;SDS011;45115;52.002;4.686;2023-07-02T12:15:15;8.68;;;4.40;;
59336;SDS011;45115;52.002;4.686;2023-07-02T12:17:42;9.55;;;4.07;;
59336;SDS011;45115;52.002;4.686;2023-07-02T12:20:09;11.15;;;5.00;;
59336;SDS011;45115;52.002;4.686;2023-07-02T12:22:38;11.05;;;4.28;;
59336;SDS011;45115;52.002;4.686;2023-07-02T12:25:05;10.75;;;4.38;;
59336;SDS011;45115;52.002;4.686;2023-07-02T12:27:33;10.48;;;4.13;;
59336;SDS011;45115;52.002;4.686;2023-07-02T12:29:59;9.88;;;4.43;;
59336;SDS011;45115;52.002;4.686;2023-07-02T12:32:26;10.98;;;4.63;;
59336;SDS011;45115;52.002;4.686;2023-07-02T12:34:53;10.65;;;4.68;;
59336;SDS011;45115;52.002;4.686;2023-07-02T12:37:22;11.02;;;4.22;;
59336;SDS011;45115;52.002;4.686;2023-07-02T12:39:51;11.10;;;4.10;;
59336;SDS011;45115;52.002;4.686;2023-07-02T12:42:17;10.95;;;4.30;;
59336;SDS011;45115;52.002;4.686;2023-07-02T12:44:44;10.77;;;4.28;;
59336;SDS011;45115;52.002;4.686;2023-07-02T12:47:12;9.88;;;3.70;;
59336;SDS011;45115;52.002;4.686;2023-07-02T12:49:39;10.90;;;4.15;;
59336;SDS011;45115;52.002;4.686;2023-07-02T12:52:06;10.23;;;4.25;;
59336;SDS011;45115;52.002;4.686;2023-07-02T12:54:33;10.88;;;4.18;;
59336;SDS011;45115;52.002;4.686;2023-07-02T12:57:01;7.88;;;3.85;;
59336;SDS011;45115;52.002;4.686;2023-07-02T12:59:28;11.15;;;4.40;;
59336;SDS011;45115;52.002;4.686;2023-07-02T13:01:54;12.65;;;4.38;;
59336;SDS011;45115;52.002;4.686;2023-07-02T13:04:22;15.38;;;4.72;;
59336;SDS011;45115;52.002;4.686;2023-07-02T13:06:49;10.15;;;4.55;;
59336;SDS011;45115;52.002;4.686;2023-07-02T13:09:16;10.88;;;4.50;;
59336;SDS011;45115;52.002;4.686;2023-07-02T13:11:43;10.75;;;5.15;;
59336;SDS011;45115;52.002;4.686;2023-07-02T13:14:11;12.07;;;4.80;;
59336;SDS011;45115;52.002;4.686;2023-07-02T13:16:38;12.63;;;5.38;;
59336;SDS011;45115;52.002;4.686;2023-07-02T13:19:05;9.75;;;4.35;;
59336;SDS011;45115;52.002;4.686;2023-07-02T13:21:31;12.40;;;4.75;;
59336;SDS011;45115;52.002;4.686;2023-07-02T13:23:58;10.95;;;5.38;;
59336;SDS011;45115;52.002;4.686;2023-07-02T13:26:25;9.55;;;4.95;;
59336;SDS011;45115;52.002;4.686;2023-07-02T13:28:52;9.75;;;4.43;;
59336;SDS011;45115;52.002;4.686;2023-07-02T13:31:20;9.90;;;4.50;;
59336;SDS011;45115;52.002;4.686;2023-07-02T13:33:47;12.43;;;4.50;;
59336;SDS011;45115;52.002;4.686;2023-07-02T13:36:14;10.63;;;4.30;;
59336;SDS011;45115;52.002;4.686;2023-07-02T13:38:41;9.38;;;4.40;;
59336;SDS011;45115;52.002;4.686;2023-07-02T13:41:08;9.45;;;3.85;;
59336;SDS011;45115;52.002;4.686;2023-07-02T13:43:35;9.88;;;4.20;;
59336;SDS011;45115;52.002;4.686;2023-07-02T13:46:02;9.10;;;3.85;;
59336;SDS011;45115;52.002;4.686;2023-07-02T13:48:30;10.40;;;4.00;;
59336;SDS011;45115;52.002;4.686;2023-07-02T13:50:57;10.20;;;3.72;;
59336;SDS011;45115;52.002;4.686;2023-07-02T13:53:24;11.77;;;4.68;;
59336;SDS011;45115;52.002;4.686;2023-07-02T13:55:51;11.18;;;4.47;;
59336;SDS011;45115;52.002;4.686;2023-07-02T13:58:18;16.58;;;8.75;;
59336;SDS011;45115;52.002;4.686;2023-07-02T14:00:46;9.32;;;4.22;;
59336;SDS011;45115;52.002;4.686;2023-07-02T14:03:13;9.18;;;4.28;;
59336;SDS011;45115;52.002;4.686;2023-07-02T14:05:40;8.73;;;3.78;;
59336;SDS011;45115;52.002;4.686;2023-07-02T14:08:07;6.90;;;3.50;;
59336;SDS011;45115;52.002;4.686;2023-07-02T14:10:35;13.07;;;4.35;;
59336;SDS011;45115;52.002;4.686;2023-07-02T14:13:02;9.23;;;3.70;;
59336;SDS011;45115;52.002;4.686;2023-07-02T14:15:28;8.07;;;3.88;;
59336;SDS011;45115;52.002;4.686;2023-07-02T14:17:57;10.32;;;3.90;;
59336;SDS011;45115;52.002;4.686;2023-07-02T14:20:24;10.55;;;3.90;;
59336;SDS011;45115;52.002;4.686;2023-07-02T14:22:50;9.57;;;3.92;;
59336;SDS011;45115;52.002;4.686;2023-07-02T14:25:17;7.30;;;3.70;;
59336;SDS011;45115;52.002;4.686;2023-07-02T14:27:44;9.63;;;4.53;;
59336;SDS011;45115;52.002;4.686;2023-07-02T14:30:12;8.85;;;3.95;;
59336;SDS011;45115;52.002;4.686;2023-07-02T14:32:39;10.30;;;3.92;;
59336;SDS011;45115;52.002;4.686;2023-07-02T14:35:10;9.73;;;3.53;;
59336;SDS011;45115;52.002;4.686;2023-07-02T14:37:36;9.27;;;3.67;;
59336;SDS011;45115;52.002;4.686;2023-07-02T14:40:04;7.97;;;3.80;;
59336;SDS011;45115;52.002;4.686;2023-07-02T14:42:31;9.23;;;4.20;;
59336;SDS011;45115;52.002;4.686;2023-07-02T14:44:58;10.13;;;4.25;;